sensor_id;sensor_type;location;lat;lon;timestamp;P1;durP1;ratioP1;P2;durP2;ratioP2
35488;SDS011;21602;55.670;37.578;2024-02-28T00:00:00;4.55;;;2.72;;
35488;SDS011;21602;55.670;37.578;2024-02-28T00:02:25;7.60;;;3.78;;
35488;SDS011;21602;55.670;37.578;2024-02-28T00:04:54;6.30;;;3.15;;
35488;SDS011;21602;55.670;37.578;2024-02-28T00:07:20;6.63;;;3.17;;
35488;SDS011;21602;55.670;37.578;2024-02-28T00:09:45;5.32;;;2.95;;
35488;SDS011;21602;55.670;37.578;2024-02-28T00:12:11;7.18;;;3.42;;
35488;SDS011;21602;55.670;37.578;2024-02-28T00:14:37;6.85;;;3.58;;
35488;SDS011;21602;55.670;37.578;2024-02-28T00:17:02;7.57;;;3.40;;
35488;SDS011;21602;55.670;37.578;2024-02-28T00:19:28;7.20;;;2.88;;
35488;SDS011;21602;55.670;37.578;2024-02-28T00:21:54;6.45;;;3.10;;
35488;SDS011;21602;55.670;37.578;2024-02-28T00:24:19;6.03;;;3.03;;
35488;SDS011;21602;55.670;37.578;2024-02-28T00:26:45;6.28;;;4.07;;
35488;SDS011;21602;55.670;37.578;2024-02-28T00:29:11;8.23;;;3.17;;
35488;SDS011;21602;55.670;37.578;2024-02-28T00:31:37;8.68;;;3.72;;
35488;SDS011;21602;55.670;37.578;2024-02-28T00:34:03;6.03;;;3.50;;
35488;SDS011;21602;55.670;37.578;2024-02-28T00:36:29;5.63;;;3.08;;
35488;SDS011;21602;55.670;37.578;2024-02-28T00:38:54;7.53;;;3.63;;
35488;SDS011;21602;55.670;37.578;2024-02-28T00:41:20;4.93;;;3.03;;
35488;SDS011;21602;55.670;37.578;2024-02-28T00:43:46;5.82;;;3.10;;
35488;SDS011;21602;55.670;37.578;2024-02-28T00:46:12;6.03;;;3.10;;
35488;SDS011;21602;55.670;37.578;2024-02-28T00:48:38;5.70;;;3.40;;
35488;SDS011;21602;55.670;37.578;2024-02-28T00:51:04;8.07;;;4.13;;
35488;SDS011;21602;55.670;37.578;2024-02-28T00:53:30;6.30;;;3.03;;
35488;SDS011;21602;55.670;37.578;2024-02-28T00:55:57;6.23;;;3.20;;
35488;SDS011;21602;55.670;37.578;2024-02-28T00:58:22;5.97;;;3.38;;
35488;SDS011;21602;55.670;37.578;2024-02-28T01:00:48;10.77;;;3.03;;
35488;SDS011;21602;55.670;37.578;2024-02-28T01:03:14;7.88;;;3.30;;
35488;SDS011;21602;55.670;37.578;2024-02-28T01:05:41;7.65;;;3.88;;
35488;SDS011;21602;55.670;37.578;2024-02-28T01:08:09;5.65;;;3.50;;
35488;SDS011;21602;55.670;37.578;2024-02-28T01:10:35;9.77;;;3.95;;
35488;SDS011;21602;55.670;37.578;2024-02-28T01:13:02;6.10;;;3.30;;
35488;SDS011;21602;55.670;37.578;2024-02-28T01:15:28;6.68;;;3.33;;
35488;SDS011;21602;55.670;37.578;2024-02-28T01:17:54;6.25;;;3.40;;
35488;SDS011;21602;55.670;37.578;2024-02-28T01:20:19;5.97;;;3.35;;
35488;SDS011;21602;55.670;37.578;2024-02-28T01:22:45;3.67;;;2.50;;
35488;SDS011;21602;55.670;37.578;2024-02-28T01:25:11;5.37;;;3.40;;
35488;SDS011;21602;55.670;37.578;2024-02-28T01:27:37;6.97;;;3.30;;
35488;SDS011;21602;55.670;37.578;2024-02-28T01:30:03;5.72;;;3.50;;
35488;SDS011;21602;55.670;37.578;2024-02-28T01:32:30;3.83;;;2.38;;
35488;SDS011;21602;55.670;37.578;2024-02-28T01:34:56;6.50;;;4.13;;
35488;SDS011;21602;55.670;37.578;2024-02-28T01:37:22;4.50;;;2.88;;
35488;SDS011;21602;55.670;37.578;2024-02-28T01:39:48;8.85;;;3.47;;
35488;SDS011;21602;55.670;37.578;2024-02-28T01:42:14;7.95;;;3.88;;
35488;SDS011;21602;55.670;37.578;2024-02-28T01:44:43;5.68;;;3.75;;
35488;SDS011;21602;55.670;37.578;2024-02-28T01:47:11;7.03;;;3.20;;
35488;SDS011;21602;55.670;37.578;2024-02-28T01:49:37;7.38;;;3.28;;
35488;SDS011;21602;55.670;37.578;2024-02-28T01:52:04;9.77;;;3.75;;
35488;SDS011;21602;55.670;37.578;2024-02-28T01:54:30;7.30;;;3.70;;
35488;SDS011;21602;55.670;37.578;2024-02-28T01:56:57;12.70;;;3.67;;
35488;SDS011;21602;55.670;37.578;2024-02-28T01:59:24;6.20;;;3.80;;
35488;SDS011;21602;55.670;37.578;2024-02-28T02:01:51;6.10;;;3.70;;
35488;SDS011;21602;55.670;37.578;2024-02-28T02:04:19;7.55;;;3.53;;
35488;SDS011;21602;55.670;37.578;2024-02-28T02:06:45;7.73;;;3.80;;
35488;SDS011;21602;55.670;37.578;2024-02-28T02:09:12;8.30;;;3.87;;
35488;SDS011;21602;55.670;37.578;2024-02-28T02:11:39;6.37;;;3.10;;
35488;SDS011;21602;55.670;37.578;2024-02-28T02:14:05;7.95;;;4.05;;
35488;SDS011;21602;55.670;37.578;2024-02-28T02:16:31;10.30;;;3.88;;
35488;SDS011;21602;55.670;37.578;2024-02-28T02:18:56;11.83;;;4.30;;
35488;SDS011;21602;55.670;37.578;2024-02-28T02:21:23;7.23;;;4.00;;
35488;SDS011;21602;55.670;37.578;2024-02-28T02:23:51;5.83;;;3.33;;
35488;SDS011;21602;55.670;37.578;2024-02-28T02:26:18;8.03;;;3.07;;
35488;SDS011;21602;55.670;37.578;2024-02-28T02:28:44;7.88;;;3.83;;
35488;SDS011;21602;55.670;37.578;2024-02-28T02:31:11;8.48;;;3.67;;
35488;SDS011;21602;55.670;37.578;2024-02-28T02:33:38;6.80;;;3.70;;
35488;SDS011;21602;55.670;37.578;2024-02-28T02:36:04;11.90;;;5.10;;
35488;SDS011;21602;55.670;37.578;2024-02-28T02:38:30;8.27;;;3.63;;
35488;SDS011;21602;55.670;37.578;2024-02-28T02:40:56;7.68;;;3.72;;
35488;SDS011;21602;55.670;37.578;2024-02-28T02:43:21;8.80;;;4.67;;
35488;SDS011;21602;55.670;37.578;2024-02-28T02:45:47;7.53;;;3.97;;
35488;SDS011;21602;55.670;37.578;2024-02-28T02:48:13;7.78;;;4.05;;
35488;SDS011;21602;55.670;37.578;2024-02-28T02:50:39;8.73;;;4.47;;
35488;SDS011;21602;55.670;37.578;2024-02-28T02:53:06;5.80;;;3.33;;
35488;SDS011;21602;55.670;37.578;2024-02-28T02:55:34;11.43;;;4.03;;
35488;SDS011;21602;55.670;37.578;2024-02-28T02:58:00;7.13;;;3.53;;
35488;SDS011;21602;55.670;37.578;2024-02-28T03:00:28;6.30;;;3.93;;
35488;SDS011;21602;55.670;37.578;2024-02-28T03:02:54;6.50;;;3.70;;
35488;SDS011;21602;55.670;37.578;2024-02-28T03:05:20;8.23;;;3.80;;
35488;SDS011;21602;55.670;37.578;2024-02-28T03:07:46;6.83;;;3.80;;
35488;SDS011;21602;55.670;37.578;2024-02-28T03:10:11;11.13;;;4.50;;
35488;SDS011;21602;55.670;37.578;2024-02-28T03:12:37;5.83;;;3.47;;
35488;SDS011;21602;55.670;37.578;2024-02-28T03:15:03;8.07;;;3.93;;
35488;SDS011;21602;55.670;37.578;2024-02-28T03:17:29;8.55;;;3.85;;
35488;SDS011;21602;55.670;37.578;2024-02-28T03:19:55;9.83;;;3.77;;
35488;SDS011;21602;55.670;37.578;2024-02-28T03:22:21;8.70;;;3.55;;
35488;SDS011;21602;55.670;37.578;2024-02-28T03:24:47;10.33;;;4.03;;
35488;SDS011;21602;55.670;37.578;2024-02-28T03:27:14;6.67;;;3.87;;
35488;SDS011;21602;55.670;37.578;2024-02-28T03:29:39;10.25;;;4.10;;
35488;SDS011;21602;55.670;37.578;2024-02-28T03:32:05;7.10;;;3.83;;
35488;SDS011;21602;55.670;37.578;2024-02-28T03:34:31;8.33;;;4.30;;
35488;SDS011;21602;55.670;37.578;2024-02-28T03:36:58;7.50;;;3.97;;
35488;SDS011;21602;55.670;37.578;2024-02-28T03:39:24;10.30;;;4.22;;
35488;SDS011;21602;55.670;37.578;2024-02-28T03:41:49;7.83;;;3.80;;
35488;SDS011;21602;55.670;37.578;2024-02-28T03:44:15;8.23;;;3.63;;
35488;SDS011;21602;55.670;37.578;2024-02-28T03:46:41;7.03;;;3.40;;
35488;SDS011;21602;55.670;37.578;2024-02-28T03:49:07;7.25;;;3.83;;
35488;SDS011;21602;55.670;37.578;2024-02-28T03:51:38;7.83;;;3.77;;
35488;SDS011;21602;55.670;37.578;2024-02-28T03:54:07;5.87;;;3.77;;
35488;SDS011;21602;55.670;37.578;2024-02-28T03:56:34;10.17;;;4.57;;
35488;SDS011;21602;55.670;37.578;2024-02-28T03:59:00;10.30;;;4.23;;
35488;SDS011;21602;55.670;37.578;2024-02-28T04:01:26;9.30;;;4.03;;
35488;SDS011;21602;55.670;37.578;2024-02-28T04:03:52;6.37;;;3.47;;
35488;SDS011;21602;55.670;37.578;2024-02-28T04:06:18;10.18;;;4.15;;
35488;SDS011;21602;55.670;37.578;2024-02-28T04:08:44;11.33;;;4.90;;
35488;SDS011;21602;55.670;37.578;2024-02-28T04:11:09;9.02;;;4.82;;
35488;SDS011;21602;55.670;37.578;2024-02-28T04:13:35;9.43;;;4.17;;
35488;SDS011;21602;55.670;37.578;2024-02-28T04:16:04;11.90;;;3.90;;
35488;SDS011;21602;55.670;37.578;2024-02-28T04:18:29;6.03;;;3.77;;
35488;SDS011;21602;55.670;37.578;2024-02-28T04:20:55;14.88;;;3.70;;
35488;SDS011;21602;55.670;37.578;2024-02-28T04:23:21;12.70;;;4.20;;
35488;SDS011;21602;55.670;37.578;2024-02-28T04:25:47;8.97;;;3.33;;
35488;SDS011;21602;55.670;37.578;2024-02-28T04:28:12;8.73;;;3.97;;
35488;SDS011;21602;55.670;37.578;2024-02-28T04:30:39;9.20;;;3.90;;
35488;SDS011;21602;55.670;37.578;2024-02-28T04:33:04;7.90;;;3.70;;
35488;SDS011;21602;55.670;37.578;2024-02-28T04:35:30;13.85;;;4.32;;
35488;SDS011;21602;55.670;37.578;2024-02-28T04:37:56;5.73;;;3.80;;
35488;SDS011;21602;55.670;37.578;2024-02-28T04:40:24;8.32;;;4.45;;
35488;SDS011;21602;55.670;37.578;2024-02-28T04:42:53;7.93;;;3.60;;
35488;SDS011;21602;55.670;37.578;2024-02-28T04:45:19;8.03;;;3.53;;
35488;SDS011;21602;55.670;37.578;2024-02-28T04:47:44;13.73;;;4.50;;
35488;SDS011;21602;55.670;37.578;2024-02-28T04:50:10;9.17;;;5.07;;
35488;SDS011;21602;55.670;37.578;2024-02-28T04:52:39;8.38;;;3.88;;
35488;SDS011;21602;55.670;37.578;2024-02-28T04:55:05;8.15;;;4.10;;
35488;SDS011;21602;55.670;37.578;2024-02-28T04:57:31;7.82;;;4.78;;
35488;SDS011;21602;55.670;37.578;2024-02-28T05:00:06;10.45;;;4.18;;
35488;SDS011;21602;55.670;37.578;2024-02-28T05:02:33;8.25;;;4.18;;
35488;SDS011;21602;55.670;37.578;2024-02-28T05:04:59;12.47;;;3.50;;
35488;SDS011;21602;55.670;37.578;2024-02-28T05:07:25;13.03;;;4.00;;
35488;SDS011;21602;55.670;37.578;2024-02-28T05:09:51;6.93;;;3.13;;
35488;SDS011;21602;55.670;37.578;2024-02-28T05:12:17;6.93;;;3.75;;
35488;SDS011;21602;55.670;37.578;2024-02-28T05:14:42;7.75;;;3.92;;
35488;SDS011;21602;55.670;37.578;2024-02-28T05:17:10;8.77;;;4.05;;
35488;SDS011;21602;55.670;37.578;2024-02-28T05:19:36;8.90;;;3.53;;
35488;SDS011;21602;55.670;37.578;2024-02-28T05:22:02;7.93;;;3.73;;
35488;SDS011;21602;55.670;37.578;2024-02-28T05:24:28;7.73;;;3.83;;
35488;SDS011;21602;55.670;37.578;2024-02-28T05:26:57;10.43;;;3.50;;
35488;SDS011;21602;55.670;37.578;2024-02-28T05:29:22;12.13;;;4.57;;
35488;SDS011;21602;55.670;37.578;2024-02-28T05:31:48;7.45;;;3.55;;
35488;SDS011;21602;55.670;37.578;2024-02-28T05:34:14;6.50;;;3.63;;
35488;SDS011;21602;55.670;37.578;2024-02-28T05:36:41;8.37;;;3.67;;
35488;SDS011;21602;55.670;37.578;2024-02-28T05:39:07;9.98;;;4.43;;
35488;SDS011;21602;55.670;37.578;2024-02-28T05:41:33;8.57;;;4.00;;
35488;SDS011;21602;55.670;37.578;2024-02-28T05:43:59;7.20;;;3.57;;
35488;SDS011;21602;55.670;37.578;2024-02-28T05:46:25;7.43;;;3.35;;
35488;SDS011;21602;55.670;37.578;2024-02-28T05:48:54;10.80;;;3.80;;
35488;SDS011;21602;55.670;37.578;2024-02-28T05:51:20;8.40;;;4.65;;
35488;SDS011;21602;55.670;37.578;2024-02-28T05:53:47;7.68;;;3.40;;
35488;SDS011;21602;55.670;37.578;2024-02-28T05:56:13;8.60;;;3.90;;
35488;SDS011;21602;55.670;37.578;2024-02-28T05:58:40;9.35;;;4.15;;
35488;SDS011;21602;55.670;37.578;2024-02-28T06:01:06;8.65;;;3.58;;
35488;SDS011;21602;55.670;37.578;2024-02-28T06:03:36;9.27;;;3.72;;
35488;SDS011;21602;55.670;37.578;2024-02-28T06:06:02;11.98;;;3.80;;
35488;SDS011;21602;55.670;37.578;2024-02-28T06:08:32;5.93;;;3.35;;
35488;SDS011;21602;55.670;37.578;2024-02-28T06:11:02;7.00;;;3.45;;
35488;SDS011;21602;55.670;37.578;2024-02-28T06:13:31;5.90;;;2.50;;
35488;SDS011;21602;55.670;37.578;2024-02-28T06:15:57;6.93;;;3.78;;
35488;SDS011;21602;55.670;37.578;2024-02-28T06:18:23;6.90;;;3.33;;
35488;SDS011;21602;55.670;37.578;2024-02-28T06:20:53;8.98;;;4.30;;
35488;SDS011;21602;55.670;37.578;2024-02-28T06:24:03;6.28;;;3.35;;
35488;SDS011;21602;55.670;37.578;2024-02-28T06:26:32;10.10;;;3.72;;
35488;SDS011;21602;55.670;37.578;2024-02-28T06:29:00;9.23;;;3.70;;
35488;SDS011;21602;55.670;37.578;2024-02-28T06:31:30;6.18;;;3.67;;
35488;SDS011;21602;55.670;37.578;2024-02-28T06:33:59;7.85;;;3.42;;
35488;SDS011;21602;55.670;37.578;2024-02-28T06:36:34;8.45;;;3.95;;
35488;SDS011;21602;55.670;37.578;2024-02-28T06:39:00;7.05;;;3.70;;
35488;SDS011;21602;55.670;37.578;2024-02-28T06:41:32;8.48;;;4.38;;
35488;SDS011;21602;55.670;37.578;2024-02-28T06:44:04;7.05;;;3.80;;
35488;SDS011;21602;55.670;37.578;2024-02-28T06:46:33;7.97;;;3.45;;
35488;SDS011;21602;55.670;37.578;2024-02-28T06:48:59;7.45;;;4.07;;
35488;SDS011;21602;55.670;37.578;2024-02-28T06:51:24;9.82;;;4.20;;
35488;SDS011;21602;55.670;37.578;2024-02-28T06:53:50;9.38;;;4.22;;
35488;SDS011;21602;55.670;37.578;2024-02-28T06:56:16;8.38;;;4.25;;
35488;SDS011;21602;55.670;37.578;2024-02-28T06:58:42;8.05;;;3.75;;
35488;SDS011;21602;55.670;37.578;2024-02-28T07:03:42;6.80;;;3.45;;
35488;SDS011;21602;55.670;37.578;2024-02-28T07:06:17;8.65;;;3.67;;
35488;SDS011;21602;55.670;37.578;2024-02-28T07:08:42;8.48;;;3.90;;
35488;SDS011;21602;55.670;37.578;2024-02-28T07:11:14;9.93;;;4.43;;
35488;SDS011;21602;55.670;37.578;2024-02-28T07:13:41;8.65;;;3.97;;
35488;SDS011;21602;55.670;37.578;2024-02-28T07:16:07;12.50;;;4.10;;
35488;SDS011;21602;55.670;37.578;2024-02-28T07:18:35;6.50;;;3.55;;
35488;SDS011;21602;55.670;37.578;2024-02-28T07:21:01;6.95;;;3.45;;
35488;SDS011;21602;55.670;37.578;2024-02-28T07:23:27;6.68;;;3.55;;
35488;SDS011;21602;55.670;37.578;2024-02-28T07:25:53;12.77;;;3.90;;
35488;SDS011;21602;55.670;37.578;2024-02-28T07:28:18;9.15;;;4.30;;
35488;SDS011;21602;55.670;37.578;2024-02-28T07:30:44;10.52;;;4.10;;
35488;SDS011;21602;55.670;37.578;2024-02-28T07:33:13;8.77;;;4.45;;
35488;SDS011;21602;55.670;37.578;2024-02-28T07:35:45;6.18;;;3.80;;
35488;SDS011;21602;55.670;37.578;2024-02-28T07:38:11;6.93;;;3.70;;
35488;SDS011;21602;55.670;37.578;2024-02-28T07:40:38;9.50;;;3.88;;
35488;SDS011;21602;55.670;37.578;2024-02-28T07:43:04;8.02;;;4.38;;
35488;SDS011;21602;55.670;37.578;2024-02-28T07:45:29;7.20;;;4.10;;
35488;SDS011;21602;55.670;37.578;2024-02-28T07:47:55;6.35;;;4.20;;
35488;SDS011;21602;55.670;37.578;2024-02-28T07:50:21;11.52;;;3.65;;
35488;SDS011;21602;55.670;37.578;2024-02-28T07:52:47;8.02;;;4.20;;
35488;SDS011;21602;55.670;37.578;2024-02-28T07:55:12;8.25;;;4.32;;
35488;SDS011;21602;55.670;37.578;2024-02-28T07:57:38;6.85;;;4.28;;
35488;SDS011;21602;55.670;37.578;2024-02-28T08:00:04;6.75;;;4.00;;
35488;SDS011;21602;55.670;37.578;2024-02-28T08:02:39;9.43;;;3.90;;
35488;SDS011;21602;55.670;37.578;2024-02-28T08:05:08;6.97;;;3.70;;
35488;SDS011;21602;55.670;37.578;2024-02-28T08:07:34;9.50;;;4.00;;
35488;SDS011;21602;55.670;37.578;2024-02-28T08:10:00;7.28;;;3.58;;
35488;SDS011;21602;55.670;37.578;2024-02-28T08:12:25;9.75;;;4.13;;
35488;SDS011;21602;55.670;37.578;2024-02-28T08:27:59;6.60;;;3.70;;
35488;SDS011;21602;55.670;37.578;2024-02-28T08:30:25;7.65;;;4.55;;
35488;SDS011;21602;55.670;37.578;2024-02-28T08:32:50;6.90;;;4.30;;
35488;SDS011;21602;55.670;37.578;2024-02-28T08:35:17;9.73;;;4.05;;
35488;SDS011;21602;55.670;37.578;2024-02-28T08:37:44;8.80;;;3.85;;
35488;SDS011;21602;55.670;37.578;2024-02-28T08:40:10;5.93;;;3.72;;
35488;SDS011;21602;55.670;37.578;2024-02-28T08:42:37;8.15;;;3.90;;
35488;SDS011;21602;55.670;37.578;2024-02-28T08:45:03;6.20;;;3.63;;
35488;SDS011;21602;55.670;37.578;2024-02-28T08:47:31;10.77;;;4.13;;
35488;SDS011;21602;55.670;37.578;2024-02-28T08:49:57;8.93;;;4.07;;
35488;SDS011;21602;55.670;37.578;2024-02-28T08:52:23;14.25;;;5.05;;
35488;SDS011;21602;55.670;37.578;2024-02-28T08:54:51;10.57;;;4.38;;
35488;SDS011;21602;55.670;37.578;2024-02-28T08:57:18;7.13;;;3.92;;
35488;SDS011;21602;55.670;37.578;2024-02-28T09:02:13;7.78;;;4.22;;
35488;SDS011;21602;55.670;37.578;2024-02-28T09:04:38;10.20;;;4.45;;
35488;SDS011;21602;55.670;37.578;2024-02-28T09:07:04;7.55;;;4.47;;
35488;SDS011;21602;55.670;37.578;2024-02-28T09:09:30;11.27;;;4.88;;
35488;SDS011;21602;55.670;37.578;2024-02-28T09:14:25;11.82;;;4.43;;
35488;SDS011;21602;55.670;37.578;2024-02-28T09:16:51;8.32;;;4.43;;
35488;SDS011;21602;55.670;37.578;2024-02-28T09:19:16;9.77;;;5.10;;
35488;SDS011;21602;55.670;37.578;2024-02-28T09:21:42;13.93;;;6.65;;
35488;SDS011;21602;55.670;37.578;2024-02-28T09:24:08;11.85;;;5.28;;
35488;SDS011;21602;55.670;37.578;2024-02-28T09:26:34;8.93;;;4.57;;
35488;SDS011;21602;55.670;37.578;2024-02-28T09:29:04;10.00;;;3.95;;
35488;SDS011;21602;55.670;37.578;2024-02-28T09:31:30;12.00;;;4.78;;
35488;SDS011;21602;55.670;37.578;2024-02-28T09:33:55;9.13;;;4.38;;
35488;SDS011;21602;55.670;37.578;2024-02-28T09:36:23;8.27;;;4.47;;
35488;SDS011;21602;55.670;37.578;2024-02-28T09:38:49;9.73;;;4.65;;
35488;SDS011;21602;55.670;37.578;2024-02-28T09:41:15;11.13;;;4.68;;
35488;SDS011;21602;55.670;37.578;2024-02-28T09:43:43;9.25;;;4.70;;
35488;SDS011;21602;55.670;37.578;2024-02-28T09:46:11;10.02;;;4.97;;
35488;SDS011;21602;55.670;37.578;2024-02-28T09:48:40;9.80;;;5.60;;
35488;SDS011;21602;55.670;37.578;2024-02-28T09:51:06;9.38;;;4.70;;
35488;SDS011;21602;55.670;37.578;2024-02-28T09:53:35;11.02;;;5.00;;
35488;SDS011;21602;55.670;37.578;2024-02-28T09:56:02;9.35;;;4.43;;
35488;SDS011;21602;55.670;37.578;2024-02-28T09:58:28;10.55;;;4.80;;
35488;SDS011;21602;55.670;37.578;2024-02-28T10:00:59;6.95;;;3.95;;
35488;SDS011;21602;55.670;37.578;2024-02-28T10:03:35;9.57;;;4.72;;
35488;SDS011;21602;55.670;37.578;2024-02-28T10:06:02;12.55;;;5.38;;
35488;SDS011;21602;55.670;37.578;2024-02-28T10:08:30;11.18;;;5.18;;
35488;SDS011;21602;55.670;37.578;2024-02-28T10:10:57;7.13;;;4.10;;
35488;SDS011;21602;55.670;37.578;2024-02-28T10:13:24;12.55;;;5.18;;
35488;SDS011;21602;55.670;37.578;2024-02-28T10:15:50;10.73;;;4.15;;
35488;SDS011;21602;55.670;37.578;2024-02-28T10:18:16;9.65;;;4.93;;
35488;SDS011;21602;55.670;37.578;2024-02-28T10:20:42;8.05;;;4.43;;
35488;SDS011;21602;55.670;37.578;2024-02-28T10:23:08;8.20;;;4.60;;
35488;SDS011;21602;55.670;37.578;2024-02-28T10:25:44;13.60;;;5.22;;
35488;SDS011;21602;55.670;37.578;2024-02-28T10:28:11;14.73;;;5.80;;
35488;SDS011;21602;55.670;37.578;2024-02-28T10:30:40;9.57;;;4.85;;
35488;SDS011;21602;55.670;37.578;2024-02-28T10:33:13;9.70;;;5.80;;
35488;SDS011;21602;55.670;37.578;2024-02-28T10:35:40;11.30;;;4.95;;
35488;SDS011;21602;55.670;37.578;2024-02-28T10:38:11;12.52;;;4.25;;
35488;SDS011;21602;55.670;37.578;2024-02-28T10:40:40;11.27;;;5.67;;
35488;SDS011;21602;55.670;37.578;2024-02-28T10:43:09;14.02;;;6.50;;
35488;SDS011;21602;55.670;37.578;2024-02-28T10:45:36;9.90;;;5.65;;
35488;SDS011;21602;55.670;37.578;2024-02-28T10:48:05;12.05;;;5.18;;
35488;SDS011;21602;55.670;37.578;2024-02-28T10:50:32;13.93;;;5.40;;
35488;SDS011;21602;55.670;37.578;2024-02-28T10:53:00;9.13;;;5.63;;
35488;SDS011;21602;55.670;37.578;2024-02-28T10:55:32;12.60;;;5.70;;
35488;SDS011;21602;55.670;37.578;2024-02-28T10:58:03;10.35;;;5.88;;
35488;SDS011;21602;55.670;37.578;2024-02-28T11:00:33;10.18;;;5.32;;
35488;SDS011;21602;55.670;37.578;2024-02-28T11:03:01;11.98;;;5.63;;
35488;SDS011;21602;55.670;37.578;2024-02-28T11:05:37;15.70;;;6.43;;
35488;SDS011;21602;55.670;37.578;2024-02-28T11:08:11;19.25;;;5.63;;
35488;SDS011;21602;55.670;37.578;2024-02-28T11:10:43;10.55;;;5.43;;
35488;SDS011;21602;55.670;37.578;2024-02-28T11:13:22;15.52;;;6.43;;
35488;SDS011;21602;55.670;37.578;2024-02-28T11:15:49;9.85;;;5.22;;
35488;SDS011;21602;55.670;37.578;2024-02-28T11:18:15;9.98;;;5.22;;
35488;SDS011;21602;55.670;37.578;2024-02-28T11:20:41;10.77;;;6.45;;
35488;SDS011;21602;55.670;37.578;2024-02-28T11:23:10;8.52;;;4.78;;
35488;SDS011;21602;55.670;37.578;2024-02-28T11:25:36;9.90;;;5.28;;
35488;SDS011;21602;55.670;37.578;2024-02-28T11:28:03;9.68;;;5.32;;
35488;SDS011;21602;55.670;37.578;2024-02-28T11:30:30;8.40;;;5.28;;
35488;SDS011;21602;55.670;37.578;2024-02-28T11:32:56;14.27;;;5.75;;
35488;SDS011;21602;55.670;37.578;2024-02-28T11:35:27;10.27;;;5.60;;
35488;SDS011;21602;55.670;37.578;2024-02-28T11:37:56;12.27;;;5.13;;
35488;SDS011;21602;55.670;37.578;2024-02-28T11:40:23;8.80;;;4.78;;
35488;SDS011;21602;55.670;37.578;2024-02-28T11:42:51;14.23;;;6.07;;
35488;SDS011;21602;55.670;37.578;2024-02-28T11:45:17;10.27;;;5.10;;
35488;SDS011;21602;55.670;37.578;2024-02-28T11:47:44;12.27;;;5.88;;
35488;SDS011;21602;55.670;37.578;2024-02-28T11:50:10;14.07;;;5.75;;
35488;SDS011;21602;55.670;37.578;2024-02-28T11:52:36;14.80;;;5.88;;
35488;SDS011;21602;55.670;37.578;2024-02-28T11:55:02;11.98;;;5.43;;
35488;SDS011;21602;55.670;37.578;2024-02-28T11:57:29;13.13;;;5.07;;
35488;SDS011;21602;55.670;37.578;2024-02-28T12:00:08;10.20;;;5.32;;
35488;SDS011;21602;55.670;37.578;2024-02-28T12:02:38;11.05;;;5.70;;
35488;SDS011;21602;55.670;37.578;2024-02-28T12:05:04;12.05;;;5.55;;
35488;SDS011;21602;55.670;37.578;2024-02-28T12:07:30;11.52;;;5.00;;
35488;SDS011;21602;55.670;37.578;2024-02-28T12:09:57;11.00;;;5.25;;
35488;SDS011;21602;55.670;37.578;2024-02-28T12:12:23;12.63;;;5.55;;
35488;SDS011;21602;55.670;37.578;2024-02-28T12:14:50;8.35;;;5.50;;
35488;SDS011;21602;55.670;37.578;2024-02-28T12:17:16;14.38;;;5.05;;
35488;SDS011;21602;55.670;37.578;2024-02-28T12:19:42;13.10;;;4.85;;
35488;SDS011;21602;55.670;37.578;2024-02-28T12:22:08;13.10;;;5.20;;
35488;SDS011;21602;55.670;37.578;2024-02-28T12:24:34;12.77;;;5.35;;
35488;SDS011;21602;55.670;37.578;2024-02-28T12:27:00;10.80;;;5.93;;
35488;SDS011;21602;55.670;37.578;2024-02-28T12:29:26;14.48;;;5.38;;
35488;SDS011;21602;55.670;37.578;2024-02-28T12:31:52;14.02;;;5.85;;
35488;SDS011;21602;55.670;37.578;2024-02-28T12:34:18;16.42;;;5.25;;
35488;SDS011;21602;55.670;37.578;2024-02-28T12:36:44;14.88;;;5.18;;
35488;SDS011;21602;55.670;37.578;2024-02-28T12:39:10;13.98;;;5.75;;
35488;SDS011;21602;55.670;37.578;2024-02-28T12:41:41;10.10;;;5.32;;
35488;SDS011;21602;55.670;37.578;2024-02-28T12:44:07;11.15;;;5.15;;
35488;SDS011;21602;55.670;37.578;2024-02-28T12:46:34;14.63;;;5.75;;
35488;SDS011;21602;55.670;37.578;2024-02-28T12:49:00;10.60;;;6.07;;
35488;SDS011;21602;55.670;37.578;2024-02-28T12:51:36;10.98;;;4.95;;
35488;SDS011;21602;55.670;37.578;2024-02-28T12:54:03;10.00;;;5.15;;
35488;SDS011;21602;55.670;37.578;2024-02-28T12:56:32;13.63;;;5.78;;
35488;SDS011;21602;55.670;37.578;2024-02-28T12:58:58;8.10;;;4.97;;
35488;SDS011;21602;55.670;37.578;2024-02-28T13:01:24;10.88;;;5.15;;
35488;SDS011;21602;55.670;37.578;2024-02-28T13:03:50;10.38;;;5.20;;
35488;SDS011;21602;55.670;37.578;2024-02-28T13:06:16;9.85;;;5.25;;
35488;SDS011;21602;55.670;37.578;2024-02-28T13:08:42;10.07;;;5.05;;
35488;SDS011;21602;55.670;37.578;2024-02-28T13:11:09;13.57;;;5.72;;
35488;SDS011;21602;55.670;37.578;2024-02-28T13:13:35;13.05;;;5.22;;
35488;SDS011;21602;55.670;37.578;2024-02-28T13:16:00;11.70;;;4.65;;
35488;SDS011;21602;55.670;37.578;2024-02-28T13:18:26;16.08;;;4.82;;
35488;SDS011;21602;55.670;37.578;2024-02-28T13:20:52;11.90;;;4.63;;
35488;SDS011;21602;55.670;37.578;2024-02-28T13:23:17;9.32;;;4.65;;
35488;SDS011;21602;55.670;37.578;2024-02-28T13:25:46;12.25;;;5.78;;
35488;SDS011;21602;55.670;37.578;2024-02-28T13:28:12;11.35;;;4.20;;
35488;SDS011;21602;55.670;37.578;2024-02-28T13:30:38;11.45;;;4.82;;
35488;SDS011;21602;55.670;37.578;2024-02-28T13:33:04;9.52;;;5.22;;
35488;SDS011;21602;55.670;37.578;2024-02-28T13:35:30;14.60;;;5.65;;
35488;SDS011;21602;55.670;37.578;2024-02-28T13:37:56;9.73;;;4.20;;
35488;SDS011;21602;55.670;37.578;2024-02-28T13:40:28;11.95;;;5.00;;
35488;SDS011;21602;55.670;37.578;2024-02-28T13:42:54;9.38;;;4.78;;
35488;SDS011;21602;55.670;37.578;2024-02-28T13:45:20;11.90;;;5.13;;
35488;SDS011;21602;55.670;37.578;2024-02-28T13:47:46;7.68;;;4.13;;
35488;SDS011;21602;55.670;37.578;2024-02-28T13:50:12;9.35;;;4.68;;
35488;SDS011;21602;55.670;37.578;2024-02-28T13:52:39;12.75;;;4.90;;
35488;SDS011;21602;55.670;37.578;2024-02-28T13:55:06;11.00;;;4.75;;
35488;SDS011;21602;55.670;37.578;2024-02-28T13:57:33;9.68;;;4.60;;
35488;SDS011;21602;55.670;37.578;2024-02-28T13:59:59;10.68;;;4.78;;
35488;SDS011;21602;55.670;37.578;2024-02-28T14:02:24;13.57;;;4.93;;
35488;SDS011;21602;55.670;37.578;2024-02-28T14:04:52;10.30;;;4.22;;
35488;SDS011;21602;55.670;37.578;2024-02-28T14:07:19;11.50;;;4.85;;
35488;SDS011;21602;55.670;37.578;2024-02-28T14:09:45;9.10;;;5.20;;
35488;SDS011;21602;55.670;37.578;2024-02-28T14:14:39;11.32;;;4.93;;
35488;SDS011;21602;55.670;37.578;2024-02-28T14:17:05;8.90;;;5.25;;
35488;SDS011;21602;55.670;37.578;2024-02-28T14:19:32;9.52;;;4.57;;
35488;SDS011;21602;55.670;37.578;2024-02-28T14:21:58;12.43;;;5.13;;
35488;SDS011;21602;55.670;37.578;2024-02-28T14:24:23;12.85;;;6.55;;
35488;SDS011;21602;55.670;37.578;2024-02-28T14:26:49;12.40;;;5.32;;
35488;SDS011;21602;55.670;37.578;2024-02-28T14:29:15;8.75;;;5.68;;
35488;SDS011;21602;55.670;37.578;2024-02-28T14:31:41;12.30;;;5.35;;
35488;SDS011;21602;55.670;37.578;2024-02-28T14:34:07;12.77;;;6.22;;
35488;SDS011;21602;55.670;37.578;2024-02-28T14:36:34;12.55;;;5.97;;
35488;SDS011;21602;55.670;37.578;2024-02-28T14:39:00;13.65;;;5.95;;
35488;SDS011;21602;55.670;37.578;2024-02-28T14:41:26;9.10;;;5.53;;
35488;SDS011;21602;55.670;37.578;2024-02-28T14:43:54;13.00;;;5.63;;
35488;SDS011;21602;55.670;37.578;2024-02-28T14:46:20;12.65;;;5.38;;
35488;SDS011;21602;55.670;37.578;2024-02-28T14:48:47;13.85;;;6.38;;
35488;SDS011;21602;55.670;37.578;2024-02-28T14:51:18;17.40;;;5.93;;